Time;durP1;ratioP1;P1;durP2;ratioP2;P2;SDS_P1;SDS_P2;PMS_P1;PMS_P2;Temp;Humidity;BMP_temperature;BMP_pressure;BME280_temperature;BME280_humidity;BME280_pressure;Samples;Min_cycle;Max_cycle;Signal;HPM_P1;HPM_P2
2022/05/02 00:00:54;;;;;;;;;;;;;;;18.60;61.43;98553.81;2088351;28;20374;-46
2022/05/02 00:01:54;;;;;;;;;;;;;;;18.60;61.33;98549.25;2086806;28;19936;-46
2022/05/02 00:02:56;;;;;;;;;;;;;;;18.59;61.27;98547.63;2087841;28;19990;-46
2022/05/02 00:03:57;;;;;;;;;;;;;;;18.59;61.26;98550.31;2089970;28;20001;-47
2022/05/02 00:04:58;;;;;;;;;;;;;;;18.58;61.14;98543.25;2089703;28;20002;-45
2022/05/02 00:06:01;;;;;;;;;;;;;;;18.59;61.13;98553.00;2089347;28;19982;-44
2022/05/02 00:07:03;;;;;;;;;;;;;;;18.58;61.42;98539.75;2089599;28;19929;-44
2022/05/02 00:08:05;;;;;;;;;;;;;;;18.59;61.06;98555.69;2090534;28;19928;-45
2022/05/02 00:09:06;;;;;;;;;;;;;;;18.57;61.19;98554.22;2088651;28;19947;-45
2022/05/02 00:10:08;;;;;;;;;;;;;;;18.58;61.17;98547.81;2090094;28;20015;-47
2022/05/02 00:11:09;;;;;;;;;;;;;;;18.57;61.08;98548.84;2087627;28;20910;-45
2022/05/02 00:12:10;;;;;;;;;;;;;;;18.56;61.40;98548.03;2090252;28;19928;-46
2022/05/02 00:13:11;;;;;;;;;;;;;;;18.57;61.13;98544.31;2088685;28;20011;-46
2022/05/02 00:14:12;;;;;;;;;;;;;;;18.57;61.21;98543.47;2089941;28;20015;-46
2022/05/02 00:15:13;;;;;;;;;;;;;;;18.58;61.23;98545.13;2090734;28;19951;-47
2022/05/02 00:16:15;;;;;;;;;;;;;;;18.57;61.55;98544.31;2089387;28;19944;-47
2022/05/02 00:17:15;;;;;;;;;;;;;;;18.54;61.58;98542.84;2090657;28;19967;-45
2022/05/02 00:18:17;;;;;;;;;;;;;;;18.53;61.42;98543.91;2090679;28;19935;-47
2022/05/02 00:19:17;;;;;;;;;;;;;;;18.56;61.16;98541.84;2090850;28;20007;-47
2022/05/02 00:20:19;;;;;;;;;;;;;;;18.57;61.21;98543.47;2092482;28;19936;-46
2022/05/02 00:21:22;;;;;;;;;;;;;;;18.58;61.42;98537.06;2090352;28;19925;-49
2022/05/02 00:22:22;;;;;;;;;;;;;;;18.59;61.14;98544.13;2089402;28;19932;-47
2022/05/02 00:23:24;;;;;;;;;;;;;;;18.60;61.16;98545.75;2089410;28;19924;-47
2022/05/02 00:24:24;;;;;;;;;;;;;;;18.59;61.28;98541.44;2090155;28;19928;-47
2022/05/02 00:25:26;;;;;;;;;;;;;;;18.59;61.34;98544.94;2090289;28;20634;-45
2022/05/02 00:26:27;;;;;;;;;;;;;;;18.57;61.20;98544.31;2089313;28;19925;-47
2022/05/02 00:27:28;;;;;;;;;;;;;;;18.57;61.35;98546.16;2089672;28;19935;-45
2022/05/02 00:28:30;;;;;;;;;;;;;;;18.56;61.31;98539.16;2088652;28;19929;-46
2022/05/02 00:29:30;;;;;;;;;;;;;;;18.54;61.01;98544.72;2089984;28;19928;-45
2022/05/02 00:30:32;;;;;;;;;;;;;;;18.56;61.06;98547.22;2091237;28;20668;-45
2022/05/02 00:31:33;;;;;;;;;;;;;;;18.56;61.14;98544.53;2089081;28;19932;-47
2022/05/02 00:32:34;;;;;;;;;;;;;;;18.54;61.44;98542.84;2090445;28;19924;-47
2022/05/02 00:33:35;;;;;;;;;;;;;;;18.54;61.35;98542.84;2092608;28;19993;-45
2022/05/02 00:34:36;;;;;;;;;;;;;;;18.54;61.12;98540.16;2092714;28;20398;-46
2022/05/02 00:35:37;;;;;;;;;;;;;;;18.54;61.25;98548.22;2091337;28;19981;-45
2022/05/02 00:36:40;;;;;;;;;;;;;;;18.54;61.24;98550.09;2092415;28;19932;-47
2022/05/02 00:37:41;;;;;;;;;;;;;;;18.56;61.14;98541.84;2090597;28;20044;-49
2022/05/02 00:38:43;;;;;;;;;;;;;;;18.54;61.40;98540.16;2090368;28;19932;-47
2022/05/02 00:39:43;;;;;;;;;;;;;;;18.53;61.19;98538.53;2091547;28;20427;-45
2022/05/02 00:40:45;;;;;;;;;;;;;;;18.53;61.44;98543.06;2090261;28;19928;-48
2022/05/02 00:41:45;;;;;;;;;;;;;;;18.55;61.29;98532.94;2087551;28;19932;-48
2022/05/02 00:42:48;;;;;;;;;;;;;;;18.54;61.01;98544.72;2091689;28;19939;-48
2022/05/02 00:43:48;;;;;;;;;;;;;;;18.54;61.12;98539.34;2092822;28;19931;-47
2022/05/02 00:44:51;;;;;;;;;;;;;;;18.53;61.16;98538.53;2088901;28;20345;-45
2022/05/02 00:45:51;;;;;;;;;;;;;;;18.56;61.21;98539.16;2091096;28;19997;-46
2022/05/02 00:46:54;;;;;;;;;;;;;;;18.53;61.14;98541.22;2090454;28;20390;-47
2022/05/02 00:47:58;;;;;;;;;;;;;;;18.54;61.11;98540.16;2081667;28;20315;-44
2022/05/02 00:48:59;;;;;;;;;;;;;;;18.54;61.25;98544.72;2083848;28;19986;-49
2022/05/02 00:50:00;;;;;;;;;;;;;;;18.52;61.23;98547.59;2092302;28;19928;-45
2022/05/02 00:51:01;;;;;;;;;;;;;;;18.55;61.25;98538.31;2086673;28;19929;-47
2022/05/02 00:52:04;;;;;;;;;;;;;;;18.53;60.97;98530.47;2090055;28;19925;-45
2022/05/02 00:53:07;;;;;;;;;;;;;;;18.51;61.29;98537.88;2090796;28;20011;-46
2022/05/02 00:54:07;;;;;;;;;;;;;;;18.52;61.32;98536.03;2090444;28;19932;-46
2022/05/02 00:55:09;;;;;;;;;;;;;;;18.50;61.14;98528.19;2093200;28;19924;-48
2022/05/02 00:56:09;;;;;;;;;;;;;;;18.50;61.17;98532.75;2092415;28;20479;-45
2022/05/02 00:57:12;;;;;;;;;;;;;;;18.50;61.31;98533.56;2090282;28;19929;-47
2022/05/02 00:58:13;;;;;;;;;;;;;;;18.49;61.12;98526.53;2092127;28;19928;-48
2022/05/02 00:59:16;;;;;;;;;;;;;;;18.49;61.29;98529.22;2082978;28;19940;-50
2022/05/02 01:00:17;;;;;;;;;;;;;;;18.49;61.27;98526.53;2089765;28;20019;-48
2022/05/02 01:01:18;;;;;;;;;;;;;;;18.49;61.29;98529.22;2090751;28;19929;-45
2022/05/02 01:02:19;;;;;;;;;;;;;;;18.50;61.18;98525.50;2088792;28;20510;-44
2022/05/02 01:03:21;;;;;;;;;;;;;;;18.50;61.12;98522.81;2090311;28;19937;-46
2022/05/02 01:04:21;;;;;;;;;;;;;;;18.50;61.20;98519.31;2092553;28;22251;-46
2022/05/02 01:05:23;;;;;;;;;;;;;;;18.49;61.27;98525.69;2088261;28;19933;-49
2022/05/02 01:07:44;;;;;;;;;;;;;;;18.50;61.25;98528.19;2090821;28;20013;-45
2022/05/02 01:08:46;;;;;;;;;;;;;;;18.50;61.43;98525.50;2092296;28;20477;-46
2022/05/02 01:09:47;;;;;;;;;;;;;;;18.51;61.33;98523.66;2092136;28;19932;-46
2022/05/02 01:10:50;;;;;;;;;;;;;;;18.48;61.22;98519.50;2091154;28;20015;-48
2022/05/02 01:11:50;;;;;;;;;;;;;;;18.49;61.25;98523.84;2089079;28;19924;-49
2022/05/02 01:12:52;;;;;;;;;;;;;;;18.51;61.29;98518.28;2092898;28;19925;-49
2022/05/02 01:13:52;;;;;;;;;;;;;;;18.48;61.21;98516.81;2091432;28;19935;-48
2022/05/02 01:14:55;;;;;;;;;;;;;;;18.48;61.04;98519.50;2091961;28;19959;-46
2022/05/02 01:15:56;;;;;;;;;;;;;;;18.49;61.33;98512.28;2083144;28;20585;-46
2022/05/02 01:16:57;;;;;;;;;;;;;;;18.47;61.20;98504.44;2094097;28;19924;-45
2022/05/02 01:17:58;;;;;;;;;;;;;;;18.47;61.36;98512.50;2089887;28;19928;-47
2022/05/02 01:19:00;;;;;;;;;;;;;;;18.46;61.43;98512.69;2090229;28;19928;-48
2022/05/02 01:20:02;;;;;;;;;;;;;;;18.45;61.36;98513.72;2092062;28;19932;-46
2022/05/02 01:21:07;;;;;;;;;;;;;;;18.46;61.39;98510.81;2091184;28;19929;-47
2022/05/02 01:22:09;;;;;;;;;;;;;;;18.46;61.40;98518.88;2090758;28;19929;-49
2022/05/02 01:23:10;;;;;;;;;;;;;;;18.45;61.24;98506.50;2090642;28;19931;-49
2022/05/02 01:24:11;;;;;;;;;;;;;;;18.47;61.40;98511.63;2092064;28;20420;-46
2022/05/02 01:25:13;;;;;;;;;;;;;;;18.47;61.38;98503.59;2091661;28;20026;-48
2022/05/02 01:26:13;;;;;;;;;;;;;;;18.46;61.28;98502.75;2090680;28;19929;-45
2022/05/02 01:27:15;;;;;;;;;;;;;;;18.47;61.25;98507.13;2088319;28;20024;-51
2022/05/02 01:28:16;;;;;;;;;;;;;;;18.46;61.08;98510.00;2090735;28;19960;-52
2022/05/02 01:29:17;;;;;;;;;;;;;;;18.44;61.35;98502.16;2092073;28;19924;-47
2022/05/02 01:30:18;;;;;;;;;;;;;;;18.47;61.38;98512.50;2090866;28;20691;-50
2022/05/02 01:31:19;;;;;;;;;;;;;;;18.48;61.32;98503.41;2092383;28;19924;-48
2022/05/02 01:32:20;;;;;;;;;;;;;;;18.48;60.86;98506.06;2090914;28;19924;-49
2022/05/02 01:33:22;;;;;;;;;;;;;;;18.49;61.38;98506.91;2090742;28;20577;-47
2022/05/02 01:34:22;;;;;;;;;;;;;;;18.49;61.11;98509.59;2092450;28;19936;-50
2022/05/02 01:35:24;;;;;;;;;;;;;;;18.47;61.30;98509.81;2091966;28;19924;-45
2022/05/02 01:36:26;;;;;;;;;;;;;;;18.47;61.13;98507.13;2088956;28;20001;-48
2022/05/02 01:37:27;;;;;;;;;;;;;;;18.47;61.32;98506.28;2089809;28;19925;-50
2022/05/02 01:38:28;;;;;;;;;;;;;;;18.47;61.24;98501.75;2089675;28;19924;-47
2022/05/02 01:39:30;;;;;;;;;;;;;;;18.44;61.05;98499.47;2092379;28;20444;-49
2022/05/02 01:40:30;;;;;;;;;;;;;;;18.44;61.17;98499.47;2086990;28;19928;-47
2022/05/02 01:41:32;;;;;;;;;;;;;;;18.43;61.12;98500.50;2088720;28;19982;-48
2022/05/02 01:42:33;;;;;;;;;;;;;;;18.45;61.12;98505.66;2090716;28;19925;-48
2022/05/02 01:43:35;;;;;;;;;;;;;;;18.44;61.16;98498.63;2092255;28;19928;-45
2022/05/02 01:44:36;;;;;;;;;;;;;;;18.46;61.08;98501.94;2091442;28;19993;-50
2022/05/02 01:45:37;;;;;;;;;;;;;;;18.42;61.27;98498.84;2090193;28;19925;-48
2022/05/02 01:46:39;;;;;;;;;;;;;;;18.43;61.17;98494.31;2090190;28;19962;-52
2022/05/02 01:47:40;;;;;;;;;;;;;;;18.45;61.21;98492.25;2088926;28;19932;-46
2022/05/02 01:48:41;;;;;;;;;;;;;;;18.44;61.33;98504.84;2090543;28;20459;-47
2022/05/02 01:49:42;;;;;;;;;;;;;;;18.43;61.08;98500.50;2086391;28;19929;-50
2022/05/02 01:50:43;;;;;;;;;;;;;;;18.44;61.13;98496.78;2091999;28;19931;-47
2022/05/02 01:51:46;;;;;;;;;;;;;;;18.42;61.01;98504.22;2091086;28;19928;-48
2022/05/02 01:52:47;;;;;;;;;;;;;;;18.42;61.18;98503.41;2092367;28;20306;-47
2022/05/02 01:53:48;;;;;;;;;;;;;;;18.43;61.29;98494.31;2091571;28;19931;-47
2022/05/02 01:54:49;;;;;;;;;;;;;;;18.43;61.24;98495.13;2091819;28;19924;-48
2022/05/02 01:55:51;;;;;;;;;;;;;;;18.44;61.42;98498.63;2089646;28;19935;-53
2022/05/02 01:56:51;;;;;;;;;;;;;;;18.44;61.06;98493.25;2087720;28;20019;-48
2022/05/02 01:57:53;;;;;;;;;;;;;;;18.43;61.08;98491.63;2087923;28;19959;-50
2022/05/02 01:58:54;;;;;;;;;;;;;;;18.43;61.26;98495.13;2088245;28;19929;-54
2022/05/02 01:59:56;;;;;;;;;;;;;;;18.43;61.26;98489.75;2091270;28;19930;-50
2022/05/02 02:00:57;;;;;;;;;;;;;;;18.43;61.26;98495.13;2090794;28;19933;-49
2022/05/02 02:01:58;;;;;;;;;;;;;;;18.43;61.19;98500.50;2091223;28;20046;-46
2022/05/02 02:02:59;;;;;;;;;;;;;;;18.43;61.03;98497.81;2092534;28;20438;-48
2022/05/02 02:04:01;;;;;;;;;;;;;;;18.43;61.27;98497.00;2090459;28;19928;-50
2022/05/02 02:06:21;;;;;;;;;;;;;;;18.41;61.22;98494.50;2090287;28;19924;-48
2022/05/02 02:07:23;;;;;;;;;;;;;;;18.41;61.26;98497.19;2089507;28;19951;-48
2022/05/02 02:08:25;;;;;;;;;;;;;;;18.42;61.24;98492.66;2087982;28;19932;-48
2022/05/02 02:09:26;;;;;;;;;;;;;;;18.42;61.13;98492.66;2091018;28;19932;-48
2022/05/02 02:10:28;;;;;;;;;;;;;;;18.42;61.13;98490.78;2090700;28;20394;-48
2022/05/02 02:11:28;;;;;;;;;;;;;;;18.42;61.12;98492.66;2092001;28;20344;-49
2022/05/02 02:12:30;;;;;;;;;;;;;;;18.40;61.08;98494.72;2091329;28;19925;-49
2022/05/02 02:13:30;;;;;;;;;;;;;;;18.39;61.32;98493.91;2091270;28;19935;-50
2022/05/02 02:14:32;;;;;;;;;;;;;;;18.40;61.23;98495.53;2090098;28;20456;-48
2022/05/02 02:15:32;;;;;;;;;;;;;;;18.39;61.16;98488.53;2092777;28;19973;-53
2022/05/02 02:16:34;;;;;;;;;;;;;;;18.39;61.28;98485.84;2089276;28;19937;-47
2022/05/02 02:17:34;;;;;;;;;;;;;;;18.39;61.23;98493.91;2089794;28;19924;-48
2022/05/02 02:18:36;;;;;;;;;;;;;;;18.38;61.11;98494.91;2091051;28;19931;-46
2022/05/02 02:19:37;;;;;;;;;;;;;;;18.38;61.30;98491.41;2089502;28;19940;-47
2022/05/02 02:20:38;;;;;;;;;;;;;;;18.37;61.43;98490.59;2077721;28;19940;-48
2022/05/02 02:21:39;;;;;;;;;;;;;;;18.39;61.19;98491.22;2089557;28;19925;-49
2022/05/02 02:22:42;;;;;;;;;;;;;;;18.39;61.17;98485.84;2091035;28;19986;-45
2022/05/02 02:23:44;;;;;;;;;;;;;;;18.38;61.31;98488.72;2090727;28;20001;-47
2022/05/02 02:24:46;;;;;;;;;;;;;;;18.39;61.07;98488.53;2092695;28;19974;-44
2022/05/02 02:25:47;;;;;;;;;;;;;;;18.39;61.39;98491.22;2092493;28;20024;-49
2022/05/02 02:26:48;;;;;;;;;;;;;;;18.38;61.22;98497.59;2088071;28;20341;-48
2022/05/02 02:27:49;;;;;;;;;;;;;;;18.39;61.17;98496.59;2089962;28;19925;-49
2022/05/02 02:28:50;;;;;;;;;;;;;;;18.38;61.28;98494.09;2092360;28;19981;-51
2022/05/02 02:29:51;;;;;;;;;;;;;;;18.36;61.18;98497.00;2087735;28;19924;-51
2022/05/02 02:30:52;;;;;;;;;;;;;;;18.37;61.29;98485.22;2089344;28;19925;-46
2022/05/02 02:31:53;;;;;;;;;;;;;;;18.37;61.10;98492.44;2091559;28;19928;-48
2022/05/02 02:32:54;;;;;;;;;;;;;;;18.37;61.26;98485.22;2088986;28;19931;-48
2022/05/02 02:33:55;;;;;;;;;;;;;;;18.37;61.15;98481.69;2089314;28;20274;-53
2022/05/02 02:34:56;;;;;;;;;;;;;;;18.38;61.04;98488.72;2090790;28;19932;-47
2022/05/02 02:35:59;;;;;;;;;;;;;;;18.35;61.16;98487.25;2094028;28;19928;-44
2022/05/02 02:37:00;;;;;;;;;;;;;;;18.37;61.39;98487.91;2090168;28;19971;-48
2022/05/02 02:38:03;;;;;;;;;;;;;;;18.36;61.31;98488.94;2088908;28;20004;-48
2022/05/02 02:39:04;;;;;;;;;;;;;;;18.37;61.19;98490.59;2089317;28;19928;-48
2022/05/02 02:40:09;;;;;;;;;;;;;;;18.36;61.29;98480.88;2089119;28;19982;-47
2022/05/02 02:41:09;;;;;;;;;;;;;;;18.36;61.30;98485.41;2090487;28;19925;-49
2022/05/02 02:42:11;;;;;;;;;;;;;;;18.36;61.15;98488.94;2090846;28;19932;-47
2022/05/02 02:43:11;;;;;;;;;;;;;;;18.35;61.43;98487.25;2091507;28;19978;-47
2022/05/02 02:44:13;;;;;;;;;;;;;;;18.37;61.25;98487.06;2089248;28;19937;-45
2022/05/02 02:45:13;;;;;;;;;;;;;;;18.37;61.54;98487.06;2090107;28;19928;-47
2022/05/02 02:46:16;;;;;;;;;;;;;;;18.36;61.35;98486.25;2089584;28;19932;-46
2022/05/02 02:47:16;;;;;;;;;;;;;;;18.37;61.32;98492.44;2091302;28;19925;-47
2022/05/02 02:48:18;;;;;;;;;;;;;;;18.37;61.33;98489.75;2090490;28;20306;-45
2022/05/02 02:49:18;;;;;;;;;;;;;;;18.36;61.20;98490.78;2088430;28;20436;-47
2022/05/02 02:50:19;;;;;;;;;;;;;;;18.35;61.02;98486.44;2088907;28;19929;-47
2022/05/02 02:51:21;;;;;;;;;;;;;;;18.34;61.09;98488.31;2088609;28;19932;-49
2022/05/02 02:52:22;;;;;;;;;;;;;;;18.33;61.21;98485.81;2090173;28;19928;-45
2022/05/02 02:53:25;;;;;;;;;;;;;;;18.35;61.04;98481.06;2090571;28;19960;-48
2022/05/02 02:54:25;;;;;;;;;;;;;;;18.32;61.02;98482.31;2088013;28;19928;-47
2022/05/02 02:55:27;;;;;;;;;;;;;;;18.34;61.17;98482.13;2090590;28;19931;-47
2022/05/02 02:56:27;;;;;;;;;;;;;;;18.33;61.11;98488.50;2089243;28;20016;-47
2022/05/02 02:57:29;;;;;;;;;;;;;;;18.33;61.22;98475.06;2088810;28;19951;-48
2022/05/02 02:58:29;;;;;;;;;;;;;;;18.33;61.33;98477.75;2090396;28;20383;-45
2022/05/02 02:59:31;;;;;;;;;;;;;;;18.31;61.21;98469.94;2090524;28;19982;-48
2022/05/02 03:00:31;;;;;;;;;;;;;;;18.34;61.12;98474.06;2090026;28;19935;-47
2022/05/02 03:01:33;;;;;;;;;;;;;;;18.33;61.25;98481.28;2089875;28;20474;-49
2022/05/02 03:02:36;;;;;;;;;;;;;;;18.31;61.28;98475.28;2088916;28;19931;-45
2022/05/02 03:03:37;;;;;;;;;;;;;;;18.31;61.19;98476.13;2088765;28;19924;-45
2022/05/02 03:06:02;;;;;;;;;;;;;;;18.33;61.15;98472.38;2088501;28;20019;-50
2022/05/02 03:07:03;;;;;;;;;;;;;;;18.33;61.33;98470.56;2089651;28;19925;-46
2022/05/02 03:08:05;;;;;;;;;;;;;;;18.31;61.29;98467.25;2088768;28;19928;-51
2022/05/02 03:09:07;;;;;;;;;;;;;;;18.30;61.34;98470.94;2085955;28;19937;-46
2022/05/02 03:10:09;;;;;;;;;;;;;;;18.31;61.34;98465.38;2091037;28;19936;-46
2022/05/02 03:11:11;;;;;;;;;;;;;;;18.30;61.07;98469.09;2089175;28;20007;-48
2022/05/02 03:12:12;;;;;;;;;;;;;;;18.34;61.34;98466.00;2090134;28;20015;-49
2022/05/02 03:13:13;;;;;;;;;;;;;;;18.31;61.25;98453.81;2091240;28;20446;-47
2022/05/02 03:14:14;;;;;;;;;;;;;;;18.31;61.37;98461.88;2090858;28;21476;-47
2022/05/02 03:15:16;;;;;;;;;;;;;;;18.33;61.38;98462.50;2090325;28;19932;-45
2022/05/02 03:16:16;;;;;;;;;;;;;;;18.31;61.49;98460.00;2087314;28;20528;-45
2022/05/02 03:17:18;;;;;;;;;;;;;;;18.33;61.16;98459.81;2089050;28;20011;-47
2022/05/02 03:18:20;;;;;;;;;;;;;;;18.34;60.99;98457.94;2088777;28;19925;-48
2022/05/02 03:19:20;;;;;;;;;;;;;;;18.33;61.09;98451.75;2090161;28;20007;-47
2022/05/02 03:20:22;;;;;;;;;;;;;;;18.34;61.29;98458.78;2090933;28;19932;-48
2022/05/02 03:21:22;;;;;;;;;;;;;;;18.30;61.08;98453.00;2089612;28;19933;-46
2022/05/02 03:22:24;;;;;;;;;;;;;;;18.33;61.23;98449.06;2090036;28;19986;-48
2022/05/02 03:23:26;;;;;;;;;;;;;;;18.30;61.14;98441.41;2088687;28;19940;-49
2022/05/02 03:24:27;;;;;;;;;;;;;;;18.29;61.34;98445.13;2089593;28;19981;-48
2022/05/02 03:25:29;;;;;;;;;;;;;;;18.30;61.14;98441.41;2089004;28;19925;-48
2022/05/02 03:26:30;;;;;;;;;;;;;;;18.30;61.18;98454.84;2089281;28;19968;-45
2022/05/02 03:27:31;;;;;;;;;;;;;;;18.29;61.25;98439.75;2091192;28;19962;-48
2022/05/02 03:28:33;;;;;;;;;;;;;;;18.29;61.26;98445.13;2090003;28;19932;-47
2022/05/02 03:29:33;;;;;;;;;;;;;;;18.30;61.07;98439.56;2091388;28;19929;-46
2022/05/02 03:30:35;;;;;;;;;;;;;;;18.30;61.05;98441.41;2090418;28;20059;-46
2022/05/02 03:31:35;;;;;;;;;;;;;;;18.29;61.29;98437.91;2088750;28;19928;-47
2022/05/02 03:32:37;;;;;;;;;;;;;;;18.28;61.08;98443.50;2091315;28;20019;-46
2022/05/02 03:33:37;;;;;;;;;;;;;;;18.28;61.28;98443.50;2089024;28;20371;-49
2022/05/02 03:34:39;;;;;;;;;;;;;;;18.28;61.27;98441.63;2089721;28;19933;-47
2022/05/02 03:35:39;;;;;;;;;;;;;;;18.29;61.18;98440.59;2089711;28;20036;-48
2022/05/02 03:36:41;;;;;;;;;;;;;;;18.29;61.35;98440.59;2089210;28;20420;-46
2022/05/02 03:37:41;;;;;;;;;;;;;;;18.28;61.18;98440.81;2089843;28;19936;-45
2022/05/02 03:38:43;;;;;;;;;;;;;;;18.27;61.07;98437.28;2092134;28;19958;-47
2022/05/02 03:39:45;;;;;;;;;;;;;;;18.28;61.18;98438.13;2091040;28;20024;-46
2022/05/02 03:40:46;;;;;;;;;;;;;;;18.29;61.14;98437.91;2089790;28;19933;-49
2022/05/02 03:41:47;;;;;;;;;;;;;;;18.27;61.01;98439.97;2087622;28;19930;-47
2022/05/02 03:42:48;;;;;;;;;;;;;;;18.27;61.11;98441.81;2092071;28;20441;-49
2022/05/02 03:43:49;;;;;;;;;;;;;;;18.27;61.18;98441.81;2091110;28;19929;-47
2022/05/02 03:44:51;;;;;;;;;;;;;;;18.27;61.20;98439.13;2091334;28;20066;-50
2022/05/02 03:45:52;;;;;;;;;;;;;;;18.25;61.16;98442.03;2091154;28;20812;-47
2022/05/02 03:46:53;;;;;;;;;;;;;;;18.25;61.29;98436.69;2090745;28;19968;-45
2022/05/02 03:47:54;;;;;;;;;;;;;;;18.25;61.20;98439.34;2091681;28;19973;-47
2022/05/02 03:48:55;;;;;;;;;;;;;;;18.25;61.12;98444.72;2083250;28;19979;-52
2022/05/02 03:49:56;;;;;;;;;;;;;;;18.26;61.10;98440.19;2081304;28;19941;-47
2022/05/02 03:50:57;;;;;;;;;;;;;;;18.25;61.35;98438.53;2091152;28;20036;-46
2022/05/02 03:51:58;;;;;;;;;;;;;;;18.25;61.17;98438.53;2092111;28;19928;-49
2022/05/02 03:52:59;;;;;;;;;;;;;;;18.24;61.38;98434.19;2091110;28;19972;-47
2022/05/02 03:54:00;;;;;;;;;;;;;;;18.25;61.23;98442.03;2091747;28;19924;-49
2022/05/02 03:55:03;;;;;;;;;;;;;;;18.24;61.11;98437.69;2092031;28;20040;-48
2022/05/02 03:56:04;;;;;;;;;;;;;;;18.22;61.14;98438.94;2090542;28;20481;-47
2022/05/02 03:57:06;;;;;;;;;;;;;;;18.23;61.38;98441.41;2092666;28;19924;-49
2022/05/02 03:58:06;;;;;;;;;;;;;;;18.24;61.38;98436.88;2090888;28;19929;-48
2022/05/02 03:59:08;;;;;;;;;;;;;;;18.23;61.20;98437.91;2090627;28;19950;-47
2022/05/02 04:00:10;;;;;;;;;;;;;;;18.23;61.29;98441.41;2090640;28;19935;-49
2022/05/02 04:01:10;;;;;;;;;;;;;;;18.24;61.28;98437.69;2089966;28;19924;-50
2022/05/02 04:02:12;;;;;;;;;;;;;;;18.23;61.29;98441.41;2089899;28;20570;-46
2022/05/02 04:03:13;;;;;;;;;;;;;;;18.22;61.25;98441.59;2089528;28;19925;-49
2022/05/02 04:04:14;;;;;;;;;;;;;;;18.24;61.14;98436.88;2090791;28;19924;-47
2022/05/02 04:05:15;;;;;;;;;;;;;;;18.23;61.30;98440.59;2091759;28;19933;-50
2022/05/02 04:06:17;;;;;;;;;;;;;;;18.22;61.33;98439.78;2090582;28;20098;-49
2022/05/02 04:07:17;;;;;;;;;;;;;;;18.24;61.07;98444.91;2092613;28;20489;-49
2022/05/02 04:08:19;;;;;;;;;;;;;;;18.21;61.47;98438.09;2092767;28;19924;-46
2022/05/02 04:09:19;;;;;;;;;;;;;;;18.21;61.19;98443.47;2091716;28;20019;-50
2022/05/02 04:10:22;;;;;;;;;;;;;;;18.22;61.39;98436.25;2092091;28;19928;-48
2022/05/02 04:11:23;;;;;;;;;;;;;;;18.21;61.42;98434.59;2091833;28;20039;-46
2022/05/02 04:12:25;;;;;;;;;;;;;;;18.22;61.15;98438.94;2092238;28;19928;-49
2022/05/02 04:13:25;;;;;;;;;;;;;;;18.20;61.23;98441.00;2092051;28;19932;-47
2022/05/02 04:14:27;;;;;;;;;;;;;;;18.20;61.44;98443.69;2092956;28;19975;-51
2022/05/02 04:15:27;;;;;;;;;;;;;;;18.20;61.15;98436.47;2092432;28;19971;-45
2022/05/02 04:16:29;;;;;;;;;;;;;;;18.22;61.29;98434.41;2091283;28;19932;-47
2022/05/02 04:17:29;;;;;;;;;;;;;;;18.21;61.38;98431.91;2092754;28;19948;-47
2022/05/02 04:18:31;;;;;;;;;;;;;;;18.21;61.15;98437.28;2092981;28;20340;-49
2022/05/02 04:19:32;;;;;;;;;;;;;;;18.22;61.30;98441.59;2091251;28;19932;-49
2022/05/02 04:20:33;;;;;;;;;;;;;;;18.22;61.33;98436.25;2090974;28;19924;-51
2022/05/02 04:21:34;;;;;;;;;;;;;;;18.21;61.26;98438.09;2093155;28;19928;-47
2022/05/02 04:22:35;;;;;;;;;;;;;;;18.23;61.34;98435.22;2089446;28;20005;-48
2022/05/02 04:23:36;;;;;;;;;;;;;;;18.21;61.25;98439.97;2091622;28;20029;-46
2022/05/02 04:24:37;;;;;;;;;;;;;;;18.21;61.29;98439.97;2089582;28;20011;-47
2022/05/02 04:25:39;;;;;;;;;;;;;;;18.20;61.35;98441.84;2090544;28;19959;-47
2022/05/02 04:26:41;;;;;;;;;;;;;;;18.19;61.19;98436.66;2090446;28;20693;-49
2022/05/02 04:27:41;;;;;;;;;;;;;;;18.17;61.34;98436.88;2090083;28;20012;-49
2022/05/02 04:28:43;;;;;;;;;;;;;;;18.17;61.15;98441.41;2091187;28;19931;-47
2022/05/02 04:29:43;;;;;;;;;;;;;;;18.16;61.41;98442.44;2092502;28;19924;-46
2022/05/02 04:30:45;;;;;;;;;;;;;;;18.17;61.46;98447.63;2090458;28;20337;-45
2022/05/02 04:31:46;;;;;;;;;;;;;;;18.18;61.12;98437.69;2089246;28;19924;-46
2022/05/02 04:32:47;;;;;;;;;;;;;;;18.16;61.39;98440.56;2092603;28;19936;-48
2022/05/02 04:33:48;;;;;;;;;;;;;;;18.18;61.43;98437.69;2090499;28;19956;-48
2022/05/02 04:34:49;;;;;;;;;;;;;;;18.16;61.38;98440.56;2090741;28;19931;-47
2022/05/02 04:35:50;;;;;;;;;;;;;;;18.17;61.19;98441.41;2089115;28;19928;-47
2022/05/02 04:36:51;;;;;;;;;;;;;;;18.17;61.32;98438.75;2090943;28;20016;-48
2022/05/02 04:37:52;;;;;;;;;;;;;;;18.17;61.20;98436.06;2092743;28;19924;-45
2022/05/02 04:38:54;;;;;;;;;;;;;;;18.18;61.47;98437.69;2090823;28;20011;-47
2022/05/02 04:39:55;;;;;;;;;;;;;;;18.17;61.43;98441.41;2088736;28;19947;-48
2022/05/02 04:40:58;;;;;;;;;;;;;;;18.18;61.22;98446.56;2081478;28;19971;-49
2022/05/02 04:41:58;;;;;;;;;;;;;;;18.17;61.20;98438.75;2083295;28;20378;-47
2022/05/02 04:43:00;;;;;;;;;;;;;;;18.18;61.34;98449.25;2082716;28;19975;-45
2022/05/02 04:44:01;;;;;;;;;;;;;;;18.16;61.39;98443.25;2085126;28;19925;-48
2022/05/02 04:45:02;;;;;;;;;;;;;;;18.17;61.19;98449.47;2089426;28;20535;-47
2022/05/02 04:46:03;;;;;;;;;;;;;;;18.17;61.03;98442.25;2091869;28;19929;-50
2022/05/02 04:47:04;;;;;;;;;;;;;;;18.18;61.07;98445.75;2091446;28;19935;-46
2022/05/02 04:48:05;;;;;;;;;;;;;;;18.17;61.29;98452.16;2088711;28;20361;-48
2022/05/02 04:49:07;;;;;;;;;;;;;;;18.14;61.30;98442.66;2093327;28;19928;-50
2022/05/02 04:50:08;;;;;;;;;;;;;;;18.15;61.33;98448.84;2091415;28;19929;-48
2022/05/02 04:51:09;;;;;;;;;;;;;;;18.15;61.33;98449.66;2089013;28;20275;-51
2022/05/02 04:52:10;;;;;;;;;;;;;;;18.16;61.26;98451.31;2092234;28;19947;-51
2022/05/02 04:53:11;;;;;;;;;;;;;;;18.16;61.13;98458.53;2092054;28;19930;-48
2022/05/02 04:54:12;;;;;;;;;;;;;;;18.15;61.48;98451.53;2085068;28;20005;-48
2022/05/02 04:55:14;;;;;;;;;;;;;;;18.17;61.37;98444.09;2092494;28;20452;-52
2022/05/02 04:56:17;;;;;;;;;;;;;;;18.16;61.38;98455.84;2088984;28;20055;-47
2022/05/02 04:57:18;;;;;;;;;;;;;;;18.15;61.28;98446.97;2092552;28;20603;-47
2022/05/02 04:58:19;;;;;;;;;;;;;;;18.13;61.36;98445.53;2086864;28;19928;-49
2022/05/02 04:59:20;;;;;;;;;;;;;;;18.15;61.07;98448.84;2090902;28;19986;-45
2022/05/02 05:00:21;;;;;;;;;;;;;;;18.13;61.42;98442.84;2088509;28;20365;-46
2022/05/02 05:01:22;;;;;;;;;;;;;;;18.12;61.14;98450.06;2090308;28;19940;-46
2022/05/02 05:02:23;;;;;;;;;;;;;;;18.14;61.27;98444.53;2088547;28;20278;-47
2022/05/02 05:03:25;;;;;;;;;;;;;;;18.14;61.32;98441.84;2090007;28;19974;-46
2022/05/02 05:04:26;;;;;;;;;;;;;;;18.12;61.42;98450.06;2089433;28;19924;-45
2022/05/02 05:05:27;;;;;;;;;;;;;;;18.11;61.20;98447.59;2091033;28;19956;-46
2022/05/02 05:06:28;;;;;;;;;;;;;;;18.11;61.44;98453.81;2090137;28;20058;-48
2022/05/02 05:07:30;;;;;;;;;;;;;;;18.12;61.39;98441.22;2088636;28;19937;-45
2022/05/02 05:08:30;;;;;;;;;;;;;;;18.11;61.34;98444.91;2092131;28;20016;-46
2022/05/02 05:09:32;;;;;;;;;;;;;;;18.12;61.14;98450.06;2090755;28;19932;-47
2022/05/02 05:10:36;;;;;;;;;;;;;;;18.14;61.33;98452.56;2087921;28;19924;-45
2022/05/02 05:11:42;;;;;;;;;;;;;;;18.12;61.23;98452.75;2090390;28;19925;-47
2022/05/02 05:12:50;;;;;;;;;;;;;;;18.11;61.43;98450.28;2089693;28;19932;-45
2022/05/02 05:16:47;;;;;;;;;;;;;;;18.11;61.49;98453.81;2091846;28;20474;-45
2022/05/02 05:17:55;;;;;;;;;;;;;;;18.11;61.15;98453.81;2088581;28;19928;-46
2022/05/02 05:19:14;;;;;;;;;;;;;;;18.11;61.45;98455.63;2090970;28;19929;-45
2022/05/02 05:20:19;;;;;;;;;;;;;;;18.12;61.28;98451.94;2091299;28;19932;-46
2022/05/02 05:21:29;;;;;;;;;;;;;;;18.13;61.08;98450.91;2087774;28;19928;-46
2022/05/02 05:22:39;;;;;;;;;;;;;;;18.12;61.25;98457.31;2092761;28;19990;-45
2022/05/02 05:23:55;;;;;;;;;;;;;;;18.12;61.37;98457.31;2088711;28;19932;-46
2022/05/02 05:25:02;;;;;;;;;;;;;;;18.10;61.14;98460.19;2087417;28;19925;-47
2022/05/02 05:26:08;;;;;;;;;;;;;;;18.11;61.60;98458.31;2092245;28;20499;-45
2022/05/02 05:27:17;;;;;;;;;;;;;;;18.12;61.32;98454.63;2088448;28;19939;-45
2022/05/02 05:28:28;;;;;;;;;;;;;;;18.10;61.41;98454.81;2087361;28;19929;-47